Time;durP1;ratioP1;P1;durP2;ratioP2;P2;SDS_P1;SDS_P2;PMS_P1;PMS_P2;Temp;Humidity;BMP_temperature;BMP_pressure;BME280_temperature;BME280_humidity;BME280_pressure;Samples;Min_cycle;Max_cycle;Signal;HPM_P1;HPM_P2
2022/03/24 00:00:39;;;;;;;77.40;14.70;;;;;;;;;;5116072;28;20295;-67
2022/03/24 00:03:06;;;;;;;76.25;14.25;;;;;;;;;;5115900;27;20268;-68
2022/03/24 00:05:34;;;;;;;78.05;14.38;;;;;;;;;;5115287;28;20291;-69
2022/03/24 00:08:01;;;;;;;78.60;15.00;;;;;;;;;;5115381;28;20259;-68
2022/03/24 00:10:29;;;;;;;79.88;14.57;;;;;;;;;;5115201;28;20686;-68
2022/03/24 00:12:56;;;;;;;76.93;13.85;;;;;;;;;;5115504;28;20298;-69
2022/03/24 00:15:25;;;;;;;73.53;13.27;;;;;;;;;;5115128;28;20206;-71
2022/03/24 00:17:52;;;;;;;75.03;14.20;;;;;;;;;;5116231;28;20232;-69
2022/03/24 00:20:20;;;;;;;74.55;14.13;;;;;;;;;;5116559;27;20234;-70
2022/03/24 00:22:47;;;;;;;77.78;15.00;;;;;;;;;;5116007;28;20691;-69
2022/03/24 00:25:14;;;;;;;75.75;14.23;;;;;;;;;;5116177;28;20208;-70
2022/03/24 00:27:41;;;;;;;80.47;13.52;;;;;;;;;;5116042;28;20256;-69
2022/03/24 00:30:09;;;;;;;72.05;13.68;;;;;;;;;;5116249;28;20298;-69
2022/03/24 00:32:37;;;;;;;76.78;14.35;;;;;;;;;;5115209;28;20211;-69
2022/03/24 00:35:05;;;;;;;79.70;14.13;;;;;;;;;;5115198;28;20235;-69
2022/03/24 00:37:32;;;;;;;76.30;13.13;;;;;;;;;;5114211;28;20648;-68
2022/03/24 00:40:06;;;;;;;73.68;13.20;;;;;;;;;;5114957;28;20210;-67
2022/03/24 00:42:34;;;;;;;72.43;13.77;;;;;;;;;;5114638;28;20740;-68
2022/03/24 00:45:01;;;;;;;76.85;15.50;;;;;;;;;;5114493;28;20254;-68
2022/03/24 00:47:29;;;;;;;73.25;13.70;;;;;;;;;;5113682;28;20306;-70
2022/03/24 00:49:57;;;;;;;78.93;14.63;;;;;;;;;;5114659;28;20203;-67
2022/03/24 00:52:24;;;;;;;80.28;14.63;;;;;;;;;;5114118;28;20203;-70
2022/03/24 00:54:51;;;;;;;74.85;14.45;;;;;;;;;;5114174;28;20200;-68
2022/03/24 00:57:19;;;;;;;76.22;15.25;;;;;;;;;;5114068;28;20231;-69
2022/03/24 00:59:47;;;;;;;77.47;15.88;;;;;;;;;;5114501;28;20674;-70
2022/03/24 01:02:14;;;;;;;78.15;13.60;;;;;;;;;;5114731;28;20203;-70
2022/03/24 01:04:42;;;;;;;75.30;12.43;;;;;;;;;;5113884;28;20675;-68
2022/03/24 01:07:10;;;;;;;72.63;13.18;;;;;;;;;;5113816;28;20232;-68
2022/03/24 01:09:38;;;;;;;75.47;13.98;;;;;;;;;;5114224;28;20623;-68
2022/03/24 01:12:05;;;;;;;77.05;14.60;;;;;;;;;;5114001;28;20210;-68
2022/03/24 01:14:35;;;;;;;73.88;13.50;;;;;;;;;;5113676;28;20210;-67
2022/03/24 01:17:02;;;;;;;72.90;12.90;;;;;;;;;;5113958;28;20242;-68
2022/03/24 01:19:29;;;;;;;76.88;14.40;;;;;;;;;;5113799;28;20210;-69
2022/03/24 01:21:56;;;;;;;76.18;14.38;;;;;;;;;;5114144;28;20580;-68
2022/03/24 01:24:25;;;;;;;75.30;13.23;;;;;;;;;;5113919;27;20205;-68
2022/03/24 01:26:52;;;;;;;73.68;14.02;;;;;;;;;;5113858;27;20215;-69
2022/03/24 01:29:21;;;;;;;73.10;12.90;;;;;;;;;;5113461;28;20221;-69
2022/03/24 01:31:48;;;;;;;74.25;13.00;;;;;;;;;;5113921;28;20223;-68
2022/03/24 01:34:16;;;;;;;75.28;14.00;;;;;;;;;;5113587;28;20217;-68
2022/03/24 01:36:44;;;;;;;77.80;13.82;;;;;;;;;;5113517;28;20704;-70
2022/03/24 01:39:11;;;;;;;78.15;15.07;;;;;;;;;;5113231;28;20697;-68
2022/03/24 01:41:40;;;;;;;73.25;13.18;;;;;;;;;;5113289;28;20203;-70
2022/03/24 01:44:12;;;;;;;77.03;14.10;;;;;;;;;;5113479;28;20215;-68
2022/03/24 01:46:39;;;;;;;72.65;12.98;;;;;;;;;;5113414;28;20315;-68
2022/03/24 01:49:08;;;;;;;75.88;14.43;;;;;;;;;;5113009;28;20693;-69
2022/03/24 01:51:35;;;;;;;75.82;14.68;;;;;;;;;;5113240;28;20302;-68
2022/03/24 01:54:03;;;;;;;72.50;13.82;;;;;;;;;;5113631;28;20207;-69
2022/03/24 01:56:30;;;;;;;76.95;14.20;;;;;;;;;;5112935;28;20228;-68
2022/03/24 01:59:00;;;;;;;76.93;13.77;;;;;;;;;;5112754;28;20586;-68
2022/03/24 02:01:29;;;;;;;71.50;12.57;;;;;;;;;;5113158;28;20207;-69
2022/03/24 02:03:58;;;;;;;75.57;14.27;;;;;;;;;;5112912;28;20214;-70
2022/03/24 02:06:26;;;;;;;72.78;12.32;;;;;;;;;;5112669;28;20707;-68
2022/03/24 02:08:55;;;;;;;78.75;13.88;;;;;;;;;;5112484;28;20207;-68
2022/03/24 02:11:22;;;;;;;75.68;14.20;;;;;;;;;;5113209;28;20199;-68
2022/03/24 02:13:49;;;;;;;74.38;14.27;;;;;;;;;;5113149;28;20226;-68
2022/03/24 02:16:18;;;;;;;73.43;13.60;;;;;;;;;;5112248;28;20226;-69
2022/03/24 02:18:45;;;;;;;78.95;15.48;;;;;;;;;;5112531;28;20600;-69
2022/03/24 02:21:15;;;;;;;73.80;14.00;;;;;;;;;;5112563;28;20207;-69
2022/03/24 02:23:44;;;;;;;74.00;14.40;;;;;;;;;;5112745;28;20226;-69
2022/03/24 02:26:12;;;;;;;73.70;13.95;;;;;;;;;;5110716;28;20220;-69
2022/03/24 02:28:39;;;;;;;78.80;15.52;;;;;;;;;;5112546;28;20591;-68
2022/03/24 02:31:06;;;;;;;82.75;13.95;;;;;;;;;;5112364;28;20215;-69
2022/03/24 02:33:34;;;;;;;76.55;14.13;;;;;;;;;;5112672;28;20208;-70
2022/03/24 02:36:01;;;;;;;72.43;13.52;;;;;;;;;;5112335;28;20211;-69
2022/03/24 02:38:28;;;;;;;75.97;15.05;;;;;;;;;;5112178;28;20206;-69
2022/03/24 02:40:56;;;;;;;75.65;13.52;;;;;;;;;;5112473;28;20691;-68
2022/03/24 02:43:24;;;;;;;76.97;13.57;;;;;;;;;;5112369;28;20207;-70
2022/03/24 02:45:53;;;;;;;73.78;13.60;;;;;;;;;;5112538;28;20203;-71
2022/03/24 02:48:21;;;;;;;78.15;14.35;;;;;;;;;;5112308;28;20220;-69
2022/03/24 02:50:49;;;;;;;75.07;13.95;;;;;;;;;;5112200;28;20211;-69
2022/03/24 02:53:16;;;;;;;78.18;14.07;;;;;;;;;;5112392;28;20260;-72
2022/03/24 02:55:43;;;;;;;77.28;14.05;;;;;;;;;;5112537;28;20286;-71
2022/03/24 02:58:11;;;;;;;76.43;14.00;;;;;;;;;;5112099;28;20334;-69
2022/03/24 03:00:39;;;;;;;74.95;15.18;;;;;;;;;;5112600;28;20229;-69
2022/03/24 03:03:06;;;;;;;77.03;14.95;;;;;;;;;;5112407;28;20643;-69
2022/03/24 03:05:35;;;;;;;76.10;14.57;;;;;;;;;;5112521;28;20207;-68
2022/03/24 03:08:02;;;;;;;77.53;14.95;;;;;;;;;;5111569;28;20764;-69
2022/03/24 03:10:29;;;;;;;72.57;12.65;;;;;;;;;;5111960;28;20204;-68
2022/03/24 03:12:57;;;;;;;72.80;13.25;;;;;;;;;;5112175;28;20203;-69
2022/03/24 03:15:25;;;;;;;75.53;13.63;;;;;;;;;;5112079;28;20686;-68
2022/03/24 03:17:52;;;;;;;75.65;13.18;;;;;;;;;;5111646;28;20234;-70
2022/03/24 03:20:19;;;;;;;77.15;13.63;;;;;;;;;;5112081;28;20203;-69
2022/03/24 03:22:47;;;;;;;71.72;13.68;;;;;;;;;;5112448;28;20210;-69
2022/03/24 03:25:14;;;;;;;76.32;14.05;;;;;;;;;;5111903;28;20222;-68
2022/03/24 03:27:41;;;;;;;73.63;13.65;;;;;;;;;;5113600;28;20703;-69
2022/03/24 03:30:09;;;;;;;74.95;15.18;;;;;;;;;;5115799;28;20306;-69
2022/03/24 03:32:37;;;;;;;75.68;13.40;;;;;;;;;;5116085;28;20229;-68
2022/03/24 03:35:05;;;;;;;78.50;13.23;;;;;;;;;;5115852;28;20311;-69
2022/03/24 03:37:35;;;;;;;82.00;13.68;;;;;;;;;;5115345;28;20226;-69
2022/03/24 03:40:02;;;;;;;80.18;14.15;;;;;;;;;;5116038;28;20600;-69
2022/03/24 03:42:29;;;;;;;76.28;14.32;;;;;;;;;;5115799;28;20209;-70
2022/03/24 03:44:57;;;;;;;74.95;13.77;;;;;;;;;;5115845;28;20303;-69
2022/03/24 03:47:24;;;;;;;75.05;13.90;;;;;;;;;;5115487;28;20322;-69
2022/03/24 03:49:53;;;;;;;75.82;14.02;;;;;;;;;;5115529;28;20203;-69
2022/03/24 03:52:20;;;;;;;77.93;13.73;;;;;;;;;;5115371;28;20207;-68
2022/03/24 03:54:47;;;;;;;77.80;13.43;;;;;;;;;;5115483;28;20693;-68
2022/03/24 03:57:14;;;;;;;71.70;12.40;;;;;;;;;;5115162;28;20222;-69
2022/03/24 03:59:41;;;;;;;74.75;14.45;;;;;;;;;;5115430;28;20290;-69
2022/03/24 04:02:09;;;;;;;76.93;14.60;;;;;;;;;;5115595;28;20210;-68
2022/03/24 04:04:36;;;;;;;74.78;15.10;;;;;;;;;;5115218;28;20214;-69
2022/03/24 04:07:04;;;;;;;74.78;13.85;;;;;;;;;;5115307;27;20219;-69
2022/03/24 04:09:32;;;;;;;78.57;14.80;;;;;;;;;;5115087;28;20294;-71
2022/03/24 04:11:59;;;;;;;78.78;14.70;;;;;;;;;;5115389;28;20295;-69
2022/03/24 04:14:26;;;;;;;75.22;13.10;;;;;;;;;;5115206;28;20294;-70
2022/03/24 04:16:56;;;;;;;74.57;14.25;;;;;;;;;;5114810;28;20250;-69
2022/03/24 04:19:24;;;;;;;79.50;15.95;;;;;;;;;;5114812;27;20865;-69
2022/03/24 04:21:52;;;;;;;78.40;14.35;;;;;;;;;;5115076;28;20565;-68
2022/03/24 04:24:20;;;;;;;77.78;13.95;;;;;;;;;;5115150;28;20290;-69
2022/03/24 04:26:47;;;;;;;79.68;16.08;;;;;;;;;;5114772;28;20599;-69
2022/03/24 04:29:14;;;;;;;79.55;14.88;;;;;;;;;;5114608;28;20204;-70
2022/03/24 04:31:42;;;;;;;80.88;16.08;;;;;;;;;;5114721;28;20212;-69
2022/03/24 04:34:09;;;;;;;78.70;15.15;;;;;;;;;;5114874;28;20294;-69
2022/03/24 04:36:36;;;;;;;82.15;17.08;;;;;;;;;;5114926;28;20262;-69
2022/03/24 04:39:03;;;;;;;82.10;16.67;;;;;;;;;;5113260;28;20209;-69
2022/03/24 04:41:32;;;;;;;79.07;14.93;;;;;;;;;;5114660;28;20299;-68
2022/03/24 04:43:59;;;;;;;80.03;14.82;;;;;;;;;;5114529;28;20210;-70
2022/03/24 04:46:26;;;;;;;76.90;14.27;;;;;;;;;;5114385;28;20231;-69
2022/03/24 04:48:53;;;;;;;75.25;14.43;;;;;;;;;;5113747;28;20778;-69
2022/03/24 04:51:20;;;;;;;77.35;15.50;;;;;;;;;;5114553;28;20208;-69
2022/03/24 04:53:47;;;;;;;75.32;13.68;;;;;;;;;;5114344;28;20200;-67
2022/03/24 04:56:16;;;;;;;78.82;16.10;;;;;;;;;;5114316;28;20315;-68
2022/03/24 04:58:44;;;;;;;75.13;14.95;;;;;;;;;;5113781;28;20229;-69
2022/03/24 05:01:13;;;;;;;78.50;14.98;;;;;;;;;;5114439;27;20203;-70
2022/03/24 05:03:42;;;;;;;75.40;14.10;;;;;;;;;;5114098;28;20285;-68
2022/03/24 05:06:10;;;;;;;78.90;15.65;;;;;;;;;;5114001;28;20268;-69
2022/03/24 05:08:37;;;;;;;78.70;15.85;;;;;;;;;;5113593;28;20706;-69
2022/03/24 05:11:04;;;;;;;74.25;14.90;;;;;;;;;;5113933;28;20295;-69
2022/03/24 05:13:31;;;;;;;78.45;15.63;;;;;;;;;;5113798;28;20210;-69
2022/03/24 05:15:59;;;;;;;75.65;15.20;;;;;;;;;;5114279;28;20200;-70
2022/03/24 05:18:26;;;;;;;77.28;16.40;;;;;;;;;;5113360;28;20204;-69
2022/03/24 05:20:54;;;;;;;76.38;13.80;;;;;;;;;;5113789;28;20200;-70
2022/03/24 05:23:21;;;;;;;77.32;14.50;;;;;;;;;;5113788;28;20204;-68
2022/03/24 05:25:49;;;;;;;87.65;18.90;;;;;;;;;;5113639;28;20229;-71
2022/03/24 05:28:16;;;;;;;86.07;17.40;;;;;;;;;;5113118;28;20226;-71
2022/03/24 05:30:43;;;;;;;77.75;15.80;;;;;;;;;;5113587;28;20306;-69
2022/03/24 05:33:13;;;;;;;79.97;16.27;;;;;;;;;;5113400;28;20671;-69
2022/03/24 05:35:40;;;;;;;80.07;16.58;;;;;;;;;;5113768;28;20204;-71
2022/03/24 05:38:07;;;;;;;78.65;16.10;;;;;;;;;;5112947;28;20249;-70
2022/03/24 05:40:36;;;;;;;76.55;15.68;;;;;;;;;;5113527;28;20199;-69
2022/03/24 05:43:03;;;;;;;76.60;13.88;;;;;;;;;;5113640;28;20204;-68
2022/03/24 05:45:31;;;;;;;81.78;15.50;;;;;;;;;;5113215;28;20203;-70
2022/03/24 05:47:58;;;;;;;73.30;13.30;;;;;;;;;;5112892;28;20238;-69
2022/03/24 05:50:27;;;;;;;84.40;15.45;;;;;;;;;;5112226;28;20203;-69
2022/03/24 05:52:55;;;;;;;77.72;15.23;;;;;;;;;;5113346;28;20203;-69
2022/03/24 05:55:23;;;;;;;78.18;16.15;;;;;;;;;;5113226;28;20283;-70
2022/03/24 05:57:50;;;;;;;74.68;14.15;;;;;;;;;;5112392;28;20314;-69
2022/03/24 06:00:18;;;;;;;76.97;15.02;;;;;;;;;;5113118;28;20299;-69
2022/03/24 06:02:45;;;;;;;76.88;15.07;;;;;;;;;;5112899;28;20203;-72
2022/03/24 06:05:13;;;;;;;78.78;14.48;;;;;;;;;;5113013;28;20212;-69
2022/03/24 06:07:42;;;;;;;76.80;15.23;;;;;;;;;;5112139;28;20227;-69
2022/03/24 06:10:10;;;;;;;77.15;15.48;;;;;;;;;;5113001;28;20204;-72
2022/03/24 06:12:37;;;;;;;76.90;15.65;;;;;;;;;;5112753;28;20268;-72
2022/03/24 06:15:05;;;;;;;77.57;14.60;;;;;;;;;;5112664;28;20668;-69
2022/03/24 06:17:33;;;;;;;81.63;16.48;;;;;;;;;;5112201;28;20304;-69
2022/03/24 06:20:01;;;;;;;77.03;15.82;;;;;;;;;;5112695;28;20207;-70
2022/03/24 06:22:28;;;;;;;78.45;15.43;;;;;;;;;;5112790;28;20203;-69
2022/03/24 06:24:57;;;;;;;77.97;15.32;;;;;;;;;;5112887;28;20203;-69
2022/03/24 06:27:24;;;;;;;75.95;14.43;;;;;;;;;;5111981;28;20223;-69
2022/03/24 06:29:52;;;;;;;79.47;13.13;;;;;;;;;;5112575;28;20677;-72
2022/03/24 06:32:20;;;;;;;74.47;14.52;;;;;;;;;;5112489;28;20210;-68
2022/03/24 06:34:50;;;;;;;79.95;15.90;;;;;;;;;;5112514;28;20238;-68
2022/03/24 06:37:18;;;;;;;75.60;14.10;;;;;;;;;;5111857;28;20234;-71
2022/03/24 06:39:45;;;;;;;77.50;15.60;;;;;;;;;;5112470;28;20217;-69
2022/03/24 06:42:13;;;;;;;78.68;14.65;;;;;;;;;;5112404;28;20298;-70
2022/03/24 06:44:41;;;;;;;79.13;15.27;;;;;;;;;;5112328;28;20206;-69
2022/03/24 06:47:08;;;;;;;74.88;14.20;;;;;;;;;;5111848;28;20231;-71
2022/03/24 06:49:35;;;;;;;76.25;15.07;;;;;;;;;;5112486;28;20223;-69
2022/03/24 06:52:02;;;;;;;80.50;15.73;;;;;;;;;;5112612;28;20211;-71
2022/03/24 06:54:30;;;;;;;76.93;14.55;;;;;;;;;;5112295;28;20295;-69
2022/03/24 06:56:57;;;;;;;78.63;16.05;;;;;;;;;;5112497;28;20231;-69
2022/03/24 06:59:25;;;;;;;76.45;14.77;;;;;;;;;;5111795;28;20532;-69
2022/03/24 07:01:52;;;;;;;76.35;14.45;;;;;;;;;;5112969;28;20584;-68
2022/03/24 07:04:19;;;;;;;77.38;13.95;;;;;;;;;;5116333;28;20214;-69
2022/03/24 07:06:47;;;;;;;74.43;14.60;;;;;;;;;;5116417;28;20230;-70
2022/03/24 07:09:14;;;;;;;77.68;14.80;;;;;;;;;;5115885;28;20227;-68
2022/03/24 07:11:41;;;;;;;75.63;14.38;;;;;;;;;;5116743;28;20630;-70
2022/03/24 07:14:08;;;;;;;73.43;13.48;;;;;;;;;;5115997;28;20210;-70
2022/03/24 07:16:36;;;;;;;78.15;16.80;;;;;;;;;;5116131;28;20703;-70
2022/03/24 07:19:06;;;;;;;78.82;15.85;;;;;;;;;;5115560;28;20204;-69
2022/03/24 07:21:33;;;;;;;76.57;14.88;;;;;;;;;;5116112;28;20214;-72
2022/03/24 07:24:01;;;;;;;75.18;14.50;;;;;;;;;;5116059;28;20203;-70
2022/03/24 07:26:28;;;;;;;76.97;15.30;;;;;;;;;;5116031;28;20315;-69
2022/03/24 07:28:55;;;;;;;75.78;14.50;;;;;;;;;;5115288;28;20219;-69
2022/03/24 07:31:24;;;;;;;83.28;14.80;;;;;;;;;;5116205;28;20211;-69
2022/03/24 07:33:55;;;;;;;76.03;14.50;;;;;;;;;;5116109;28;20642;-69
2022/03/24 07:36:22;;;;;;;79.97;14.52;;;;;;;;;;5116117;28;20314;-69
2022/03/24 07:38:50;;;;;;;79.78;14.13;;;;;;;;;;5115202;28;20676;-69
2022/03/24 07:41:17;;;;;;;79.22;15.55;;;;;;;;;;5115640;27;20203;-71
2022/03/24 07:43:44;;;;;;;81.53;14.77;;;;;;;;;;5115978;28;20204;-69
2022/03/24 07:46:12;;;;;;;72.78;13.38;;;;;;;;;;5115779;27;20224;-70
2022/03/24 07:48:39;;;;;;;75.03;14.63;;;;;;;;;;5115261;28;20318;-69
2022/03/24 07:51:08;;;;;;;76.97;14.55;;;;;;;;;;5115717;28;20209;-69
2022/03/24 07:53:50;;;;;;;75.10;15.13;;;;;;;;;;5115443;28;20203;-69
2022/03/24 07:56:17;;;;;;;77.78;15.70;;;;;;;;;;5115137;28;20594;-69
2022/03/24 07:58:44;;;;;;;75.97;15.75;;;;;;;;;;5110323;28;20204;-69
2022/03/24 08:01:12;;;;;;;78.45;16.52;;;;;;;;;;5114006;28;20246;-71
2022/03/24 08:03:39;;;;;;;80.25;15.63;;;;;;;;;;5114297;28;20256;-67
2022/03/24 08:06:07;;;;;;;78.35;16.38;;;;;;;;;;5114043;28;20230;-68
2022/03/24 08:08:35;;;;;;;79.28;18.48;;;;;;;;;;5112876;28;20570;-69
2022/03/24 08:11:02;;;;;;;76.78;15.13;;;;;;;;;;5098203;28;20236;-69
2022/03/24 08:13:29;;;;;;;76.07;15.85;;;;;;;;;;5092533;28;20215;-69
2022/03/24 08:15:56;;;;;;;76.25;14.98;;;;;;;;;;5093883;28;20216;-69
2022/03/24 08:18:23;;;;;;;76.75;14.70;;;;;;;;;;5093096;28;20206;-69
2022/03/24 08:20:52;;;;;;;74.00;15.10;;;;;;;;;;5093982;28;20205;-69
2022/03/24 08:23:21;;;;;;;78.80;15.90;;;;;;;;;;5093748;28;20756;-69
2022/03/24 08:25:48;;;;;;;78.38;17.08;;;;;;;;;;5094229;28;20288;-69
2022/03/24 08:28:15;;;;;;;74.88;14.50;;;;;;;;;;5093607;28;20320;-69
2022/03/24 08:30:44;;;;;;;78.20;16.00;;;;;;;;;;5093951;28;20220;-70
2022/03/24 08:33:11;;;;;;;76.32;15.57;;;;;;;;;;5093680;28;20204;-70
2022/03/24 08:35:38;;;;;;;77.75;16.40;;;;;;;;;;5094076;28;20204;-69
2022/03/24 08:38:05;;;;;;;76.88;15.85;;;;;;;;;;5093126;28;20230;-70
2022/03/24 08:40:34;;;;;;;78.05;16.30;;;;;;;;;;5093056;28;20209;-69
2022/03/24 08:43:01;;;;;;;77.43;15.25;;;;;;;;;;5103070;28;20208;-70
2022/03/24 08:45:28;;;;;;;77.10;16.27;;;;;;;;;;5114718;28;20209;-69
2022/03/24 08:47:55;;;;;;;79.73;16.27;;;;;;;;;;5113620;28;20467;-70
2022/03/24 08:50:23;;;;;;;79.67;16.47;;;;;;;;;;5114311;28;20534;-70
2022/03/24 08:52:51;;;;;;;76.67;15.47;;;;;;;;;;5114024;28;20446;-69
2022/03/24 08:55:18;;;;;;;77.17;16.80;;;;;;;;;;5114130;27;20458;-70
2022/03/24 08:57:47;;;;;;;76.47;15.80;;;;;;;;;;5112940;28;20473;-68
2022/03/24 09:00:15;;;;;;;80.20;16.27;;;;;;;;;;5113981;28;20532;-70
2022/03/24 09:02:43;;;;;;;78.47;16.30;;;;;;;;;;5113936;28;20516;-67
2022/03/24 09:05:11;;;;;;;82.97;17.17;;;;;;;;;;5114252;28;20534;-68
2022/03/24 09:07:38;;;;;;;75.97;15.83;;;;;;;;;;5113409;28;20459;-68
2022/03/24 09:10:06;;;;;;;82.60;15.77;;;;;;;;;;5113939;28;20591;-67
2022/03/24 09:12:35;;;;;;;80.73;17.97;;;;;;;;;;5113567;28;20949;-68
2022/03/24 09:15:05;;;;;;;82.27;18.40;;;;;;;;;;5099003;28;20455;-68
2022/03/24 09:17:32;;;;;;;78.27;15.83;;;;;;;;;;5092381;28;20561;-68
2022/03/24 09:20:00;;;;;;;83.43;18.90;;;;;;;;;;5093093;28;20446;-68
2022/03/24 09:22:27;;;;;;;79.50;18.50;;;;;;;;;;5093390;28;20883;-68
2022/03/24 09:24:54;;;;;;;84.13;17.83;;;;;;;;;;5092952;28;20510;-68
2022/03/24 09:27:22;;;;;;;80.77;17.83;;;;;;;;;;5092390;28;20993;-68
2022/03/24 09:29:50;;;;;;;91.60;18.03;;;;;;;;;;5092779;28;20572;-68
2022/03/24 09:32:19;;;;;;;81.43;17.90;;;;;;;;;;5092823;28;20454;-68
2022/03/24 09:34:46;;;;;;;85.73;18.70;;;;;;;;;;5092436;28;20442;-68
2022/03/24 09:37:17;;;;;;;81.47;18.80;;;;;;;;;;5091598;28;20466;-69
2022/03/24 09:39:44;;;;;;;80.67;16.90;;;;;;;;;;5092772;28;20442;-68
2022/03/24 09:42:11;;;;;;;79.27;18.30;;;;;;;;;;5092715;28;20450;-70
2022/03/24 09:44:38;;;;;;;86.93;20.90;;;;;;;;;;5092931;28;20447;-69
2022/03/24 09:47:06;;;;;;;83.67;19.03;;;;;;;;;;5103071;28;20476;-69
2022/03/24 09:49:35;;;;;;;80.37;19.43;;;;;;;;;;5112673;28;20481;-71
2022/03/24 09:52:02;;;;;;;80.80;17.90;;;;;;;;;;5112619;28;20449;-69
2022/03/24 09:54:29;;;;;;;79.77;18.47;;;;;;;;;;5112776;28;20442;-70
2022/03/24 09:56:56;;;;;;;85.13;18.20;;;;;;;;;;5112298;28;20883;-70
2022/03/24 09:59:23;;;;;;;77.57;17.20;;;;;;;;;;5111816;28;20439;-70
2022/03/24 10:01:51;;;;;;;78.27;17.93;;;;;;;;;;5113157;28;20454;-70
2022/03/24 10:04:18;;;;;;;77.47;17.87;;;;;;;;;;5112987;27;20442;-70
2022/03/24 10:07:00;;;;;;;78.70;17.47;;;;;;;;;;5112522;28;20472;-71
2022/03/24 10:09:37;;;;;;;78.63;18.73;;;;;;;;;;5112075;28;20570;-70
2022/03/24 10:12:05;;;;;;;82.80;17.30;;;;;;;;;;5112517;28;20451;-70
2022/03/24 10:14:32;;;;;;;81.80;19.50;;;;;;;;;;5112849;28;20447;-71
2022/03/24 10:17:06;;;;;;;74.97;17.70;;;;;;;;;;5110100;28;20569;-73
2022/03/24 10:19:34;;;;;;;78.80;17.50;;;;;;;;;;5091177;28;20452;-72
2022/03/24 10:22:08;;;;;;;81.27;17.87;;;;;;;;;;5092267;28;20456;-70
2022/03/24 10:24:40;;;;;;;74.43;16.37;;;;;;;;;;5092354;28;20446;-71
2022/03/24 10:27:07;;;;;;;75.07;17.53;;;;;;;;;;5091800;28;20540;-71
2022/03/24 10:29:35;;;;;;;72.00;15.70;;;;;;;;;;5091680;28;20945;-71
2022/03/24 10:32:03;;;;;;;72.47;16.07;;;;;;;;;;5091508;28;20481;-69
2022/03/24 10:34:32;;;;;;;72.70;16.50;;;;;;;;;;5092003;28;20482;-69
2022/03/24 10:37:00;;;;;;;71.50;16.60;;;;;;;;;;5090900;28;20466;-69
2022/03/24 10:39:28;;;;;;;74.33;17.30;;;;;;;;;;5090702;28;20879;-69
2022/03/24 10:42:10;;;;;;;73.07;18.47;;;;;;;;;;5091865;28;20446;-69
2022/03/24 10:44:38;;;;;;;71.17;16.20;;;;;;;;;;5091629;28;20446;-69
2022/03/24 10:47:05;;;;;;;73.40;17.20;;;;;;;;;;5091712;28;20498;-70
2022/03/24 10:49:32;;;;;;;71.10;15.40;;;;;;;;;;5088241;28;20850;-69
2022/03/24 10:52:02;;;;;;;73.97;16.77;;;;;;;;;;5091501;28;20446;-69
2022/03/24 10:54:44;;;;;;;75.00;18.13;;;;;;;;;;5091597;28;20876;-69
2022/03/24 10:57:14;;;;;;;71.97;17.03;;;;;;;;;;5090380;28;20841;-69
2022/03/24 10:59:43;;;;;;;73.73;16.60;;;;;;;;;;5091037;28;20931;-69
2022/03/24 11:02:10;;;;;;;78.10;18.00;;;;;;;;;;5091345;28;20525;-69
2022/03/24 11:04:37;;;;;;;70.80;15.73;;;;;;;;;;5091687;28;20456;-69
2022/03/24 11:07:05;;;;;;;70.40;15.63;;;;;;;;;;5091479;28;20497;-72
2022/03/24 11:09:35;;;;;;;73.25;15.70;;;;;;;;;;5090753;28;20432;-70
2022/03/24 11:12:21;;;;;;;72.67;15.10;;;;;;;;;;5091800;28;20596;-70
2022/03/24 11:14:50;;;;;;;71.40;16.30;;;;;;;;;;5091508;28;20540;-70
2022/03/24 11:17:18;;;;;;;72.73;17.60;;;;;;;;;;5090373;28;20474;-70
2022/03/24 11:19:47;;;;;;;68.80;14.70;;;;;;;;;;5090119;28;20931;-71
2022/03/24 11:22:14;;;;;;;74.87;17.40;;;;;;;;;;5088777;28;20456;-70
2022/03/24 11:24:43;;;;;;;70.30;16.73;;;;;;;;;;5091748;28;20472;-70
2022/03/24 11:27:10;;;;;;;71.67;15.87;;;;;;;;;;5090620;28;20452;-71
2022/03/24 11:29:37;;;;;;;73.70;16.03;;;;;;;;;;5091186;28;20509;-72
2022/03/24 11:32:06;;;;;;;69.33;16.23;;;;;;;;;;5091265;28;20797;-70
2022/03/24 11:34:33;;;;;;;67.80;14.60;;;;;;;;;;5091909;28;20420;-70
2022/03/24 11:37:00;;;;;;;72.40;17.20;;;;;;;;;;5090775;28;20545;-70
2022/03/24 11:39:28;;;;;;;77.07;16.50;;;;;;;;;;5090143;28;20886;-70
2022/03/24 11:41:58;;;;;;;70.70;15.30;;;;;;;;;;5091323;28;20550;-70
2022/03/24 11:44:31;;;;;;;71.57;14.73;;;;;;;;;;5091445;28;20533;-70
2022/03/24 11:47:00;;;;;;;70.37;15.00;;;;;;;;;;5091063;28;20577;-71
2022/03/24 11:49:27;;;;;;;71.00;16.10;;;;;;;;;;5093652;28;20534;-71
2022/03/24 11:52:09;;;;;;;73.73;15.30;;;;;;;;;;5092618;28;20453;-71
2022/03/24 11:54:37;;;;;;;70.93;15.10;;;;;;;;;;5114969;28;20520;-71
2022/03/24 11:57:27;;;;;;;68.87;15.63;;;;;;;;;;5114869;28;20904;-71
2022/03/24 12:00:09;;;;;;;68.77;14.57;;;;;;;;;;5114698;28;20485;-71
2022/03/24 12:02:36;;;;;;;66.90;14.87;;;;;;;;;;5115169;28;20510;-70
2022/03/24 12:05:04;;;;;;;68.60;14.40;;;;;;;;;;5115397;28;20444;-71
2022/03/24 12:07:31;;;;;;;70.13;15.17;;;;;;;;;;5114464;28;20469;-71
2022/03/24 12:10:00;;;;;;;68.40;15.23;;;;;;;;;;5114947;28;20444;-70
2022/03/24 12:12:29;;;;;;;70.00;15.87;;;;;;;;;;5115400;27;20817;-71
2022/03/24 12:14:58;;;;;;;67.33;15.20;;;;;;;;;;5115267;28;20488;-70
2022/03/24 12:17:30;;;;;;;71.37;14.80;;;;;;;;;;5114051;28;20478;-71
2022/03/24 12:19:58;;;;;;;69.33;16.80;;;;;;;;;;5114607;28;20489;-71
2022/03/24 12:22:36;;;;;;;68.90;14.60;;;;;;;;;;5114168;28;20462;-71
2022/03/24 12:25:22;;;;;;;69.37;14.30;;;;;;;;;;5099925;28;20454;-70
2022/03/24 12:28:01;;;;;;;71.47;16.60;;;;;;;;;;5093876;28;20843;-70
2022/03/24 12:30:29;;;;;;;71.67;15.50;;;;;;;;;;5093962;28;20507;-70
2022/03/24 12:33:03;;;;;;;68.90;15.90;;;;;;;;;;5093639;28;20442;-70
2022/03/24 12:35:40;;;;;;;67.00;15.50;;;;;;;;;;5093704;28;20884;-71
2022/03/24 12:38:21;;;;;;;71.20;16.97;;;;;;;;;;5092470;28;20849;-71
2022/03/24 12:41:08;;;;;;;68.70;15.60;;;;;;;;;;5093678;28;20930;-70
2022/03/24 12:43:41;;;;;;;66.07;13.50;;;;;;;;;;5093933;28;20449;-72
2022/03/24 12:46:25;;;;;;;67.47;14.13;;;;;;;;;;5094506;28;20450;-71
2022/03/24 12:48:53;;;;;;;65.67;13.50;;;;;;;;;;5093480;28;20446;-70
2022/03/24 12:51:21;;;;;;;67.00;14.57;;;;;;;;;;5094211;28;20968;-70
2022/03/24 12:53:51;;;;;;;67.87;14.23;;;;;;;;;;5093425;28;20519;-70
2022/03/24 12:56:22;;;;;;;67.87;15.67;;;;;;;;;;5101915;28;20812;-70
2022/03/24 12:58:54;;;;;;;75.10;15.00;;;;;;;;;;5113685;28;20446;-70
2022/03/24 13:01:21;;;;;;;69.70;14.70;;;;;;;;;;5112845;28;20493;-71
2022/03/24 13:03:55;;;;;;;70.00;14.10;;;;;;;;;;5113830;28;20449;-71
2022/03/24 13:06:23;;;;;;;67.83;15.03;;;;;;;;;;5113796;28;20522;-70
2022/03/24 13:09:08;;;;;;;68.77;14.77;;;;;;;;;;5113419;28;20456;-70
2022/03/24 13:11:49;;;;;;;67.37;14.90;;;;;;;;;;5114015;28;20448;-70
2022/03/24 13:14:19;;;;;;;68.37;14.10;;;;;;;;;;5113448;28;20441;-70
2022/03/24 13:16:58;;;;;;;67.63;13.70;;;;;;;;;;5113194;27;20472;-70
2022/03/24 13:19:26;;;;;;;66.57;14.63;;;;;;;;;;5112899;28;20806;-70
2022/03/24 13:21:53;;;;;;;65.40;14.30;;;;;;;;;;5113565;27;20437;-71
2022/03/24 13:24:21;;;;;;;69.33;15.17;;;;;;;;;;5113466;28;20536;-70
2022/03/24 13:26:57;;;;;;;66.83;14.60;;;;;;;;;;5106679;28;20569;-70
2022/03/24 13:29:35;;;;;;;68.67;15.60;;;;;;;;;;5092317;28;20578;-71
2022/03/24 13:32:08;;;;;;;72.07;15.07;;;;;;;;;;5092964;28;20640;-70
2022/03/24 13:34:36;;;;;;;68.67;15.10;;;;;;;;;;5092602;28;20453;-70
2022/03/24 13:37:11;;;;;;;67.43;14.83;;;;;;;;;;5092777;28;20845;-70
2022/03/24 13:39:38;;;;;;;65.17;14.17;;;;;;;;;;5092517;28;20450;-70
2022/03/24 13:42:08;;;;;;;70.00;17.30;;;;;;;;;;5092935;28;20443;-70
2022/03/24 13:44:37;;;;;;;72.10;14.50;;;;;;;;;;5092728;28;20789;-69
2022/03/24 13:47:05;;;;;;;68.60;14.40;;;;;;;;;;5092831;28;20527;-70
2022/03/24 13:49:33;;;;;;;71.57;16.20;;;;;;;;;;5092189;28;20791;-69
2022/03/24 13:52:00;;;;;;;68.20;14.33;;;;;;;;;;5092652;28;20453;-69
2022/03/24 13:54:27;;;;;;;68.50;14.10;;;;;;;;;;5092178;28;20813;-69
2022/03/24 13:56:54;;;;;;;68.53;14.70;;;;;;;;;;5092221;28;20477;-69
2022/03/24 13:59:26;;;;;;;76.07;15.27;;;;;;;;;;5088367;28;20462;-69
2022/03/24 14:01:58;;;;;;;69.90;13.83;;;;;;;;;;5092341;28;20784;-69
2022/03/24 14:04:25;;;;;;;70.83;15.60;;;;;;;;;;5092120;28;20530;-70
2022/03/24 14:07:06;;;;;;;66.57;13.10;;;;;;;;;;5092224;28;20470;-70
2022/03/24 14:09:33;;;;;;;71.83;15.20;;;;;;;;;;5091915;28;20934;-69
2022/03/24 14:12:04;;;;;;;69.57;13.60;;;;;;;;;;5091344;28;20779;-70
2022/03/24 14:14:31;;;;;;;66.57;12.60;;;;;;;;;;5091837;28;20450;-69
2022/03/24 14:17:00;;;;;;;74.37;13.10;;;;;;;;;;5092241;28;20475;-69
2022/03/24 14:19:28;;;;;;;70.43;13.03;;;;;;;;;;5091060;28;20533;-69
2022/03/24 14:21:56;;;;;;;69.97;13.87;;;;;;;;;;5092163;28;20487;-69
2022/03/24 14:24:37;;;;;;;67.70;13.67;;;;;;;;;;5092022;28;20442;-69